Time;durP1;ratioP1;P1;durP2;ratioP2;P2;SDS_P1;SDS_P2;PMS_P1;PMS_P2;Temp;Humidity;BMP_temperature;BMP_pressure;BME280_temperature;BME280_humidity;BME280_pressure;Samples;Min_cycle;Max_cycle;Signal;HPM_P1;HPM_P2
2023/12/14 00:02:31;;;;;;;10.55;6.38;;;7.30;1.00;;;;;;5203706;28;20047;-36
2023/12/14 00:05:10;;;;;;;8.90;5.85;;;7.20;1.00;;;;;;5177392;28;20044;-36
2023/12/14 00:07:41;;;;;;;11.60;7.10;;;7.20;1.00;;;;;;5195767;28;20296;-36
2023/12/14 00:10:12;;;;;;;7.93;5.95;;;7.30;1.00;;;;;;5182863;28;20039;-35
2023/12/14 00:12:46;;;;;;;11.00;6.47;;;7.30;1.00;;;;;;5186861;28;20022;-35
2023/12/14 00:15:20;;;;;;;16.00;9.70;;;7.30;1.00;;;;;;5182821;28;20044;-35
2023/12/14 00:17:55;;;;;;;17.63;11.32;;;7.00;1.00;;;;;;5192797;28;20060;-35
2023/12/14 00:20:26;;;;;;;16.13;9.98;;;6.90;1.00;;;;;;5194779;28;20037;-35
2023/12/14 00:22:57;;;;;;;17.27;10.23;;;6.70;1.00;;;;;;5190402;28;20165;-35
2023/12/14 00:25:31;;;;;;;20.50;11.27;;;6.60;1.00;;;;;;5186185;28;20033;-35
2023/12/14 00:28:02;;;;;;;21.17;12.30;;;6.60;1.00;;;;;;5184423;28;20037;-35
2023/12/14 00:30:36;;;;;;;19.77;11.02;;;6.50;1.00;;;;;;5193789;28;20025;-35
2023/12/14 00:33:07;;;;;;;21.85;11.00;;;6.40;1.00;;;;;;5194904;28;20045;-35
2023/12/14 00:35:41;;;;;;;20.88;11.43;;;6.30;1.00;;;;;;5177525;28;20247;-35
2023/12/14 00:38:12;;;;;;;19.15;10.80;;;6.30;1.00;;;;;;5179203;28;20335;-35
2023/12/14 00:40:43;;;;;;;20.60;10.40;;;6.20;1.00;;;;;;5185492;28;20256;-34
2023/12/14 00:43:15;;;;;;;18.92;10.60;;;6.20;1.00;;;;;;5179467;28;20037;-34
2023/12/14 00:45:49;;;;;;;20.77;11.45;;;6.20;1.00;;;;;;5181607;28;20041;-34
2023/12/14 00:48:21;;;;;;;20.75;11.65;;;6.20;1.00;;;;;;5189908;28;20041;-34
2023/12/14 00:50:52;;;;;;;22.27;11.95;;;6.20;1.00;;;;;;5195035;28;20041;-34
2023/12/14 00:53:25;;;;;;;20.50;12.27;;;6.20;18.40;;;;;;5189376;28;20039;-33
2023/12/14 00:56:00;;;;;;;22.15;12.68;;;6.30;26.60;;;;;;5175470;28;20030;-34
2023/12/14 00:58:31;;;;;;;20.48;11.00;;;6.30;33.50;;;;;;5197895;28;20033;-34
2023/12/14 01:01:05;;;;;;;24.02;11.38;;;6.30;30.70;;;;;;5179747;28;20029;-34
2023/12/14 01:03:36;;;;;;;20.67;12.40;;;6.40;37.80;;;;;;5184399;28;20361;-34
2023/12/14 01:06:08;;;;;;;24.10;13.13;;;6.40;49.70;;;;;;5192303;28;20252;-35
2023/12/14 01:08:39;;;;;;;22.60;11.98;;;6.40;46.10;;;;;;5179773;28;20306;-35
2023/12/14 01:11:13;;;;;;;19.27;10.15;;;6.40;48.20;;;;;;5189547;28;20317;-35
2023/12/14 01:13:44;;;;;;;;;;;6.40;50.90;;;;;;5180658;28;20030;-35
2023/12/14 01:16:20;;;;;;;22.92;11.00;;;6.40;49.40;;;;;;5178645;28;20129;-35
2023/12/14 01:18:52;;;;;;;17.58;11.25;;;6.40;40.70;;;;;;5190376;28;20320;-35
2023/12/14 01:21:23;;;;;;;21.20;11.18;;;6.40;39.30;;;;;;5202696;28;20048;-35
2023/12/14 01:23:56;;;;;;;20.15;11.80;;;6.20;10.60;;;;;;5201651;28;20044;-34
2023/12/14 01:26:27;;;;;;;19.80;11.83;;;6.10;23.30;;;;;;5178796;28;20040;-35
2023/12/14 01:28:59;;;;;;;21.48;12.52;;;6.20;29.40;;;;;;5183009;28;20033;-34
2023/12/14 01:31:33;;;;;;;20.45;10.90;;;6.10;21.70;;;;;;5189812;28;20025;-35
2023/12/14 01:34:04;;;;;;;19.10;11.13;;;6.00;21.60;;;;;;5200303;28;20030;-35
2023/12/14 01:36:35;;;;;;;18.10;10.38;;;6.00;24.50;;;;;;5195443;28;20052;-34
2023/12/14 01:39:10;;;;;;;19.58;12.40;;;5.90;37.40;;;;;;5188409;28;20454;-35
2023/12/14 01:41:44;;;;;;;17.73;10.32;;;5.90;48.10;;;;;;5189598;28;20040;-34
2023/12/14 01:44:18;;;;;;;;;;;6.00;64.50;;;;;;5188137;28;20086;-34
2023/12/14 01:46:49;;;;;;;16.75;10.27;;;6.00;70.60;;;;;;5176243;28;19905;-38
2023/12/14 01:49:20;;;;;;;20.77;11.48;;;6.10;76.80;;;;;;5182869;28;20029;-34
2023/12/14 01:51:52;;;;;;;20.27;10.55;;;6.10;71.00;;;;;;5193159;28;20354;-35
2023/12/14 01:54:25;;;;;;;14.38;8.77;;;6.10;72.30;;;;;;5187799;28;20320;-40
2023/12/14 01:56:58;;;;;;;15.60;9.93;;;6.20;90.10;;;;;;5185193;28;20045;-34
2023/12/14 01:59:32;;;;;;;16.58;9.25;;;6.30;97.00;;;;;;5172853;28;20064;-35
2023/12/14 02:02:05;;;;;;;15.07;9.50;;;6.40;99.90;;;;;;5162073;28;20033;-34
2023/12/14 02:04:39;;;;;;;19.42;9.98;;;6.50;99.90;;;;;;5178937;28;20240;-34
2023/12/14 02:07:18;;;;;;;25.88;12.43;;;6.50;99.90;;;;;;5193628;28;20044;-34
2023/12/14 02:09:52;;;;;;;20.08;10.77;;;6.60;99.90;;;;;;5180374;28;20236;-34
2023/12/14 02:12:29;;;;;;;18.42;10.40;;;6.50;99.90;;;;;;5191164;28;20331;-34
2023/12/14 02:15:00;;;;;;;17.83;10.13;;;6.50;99.90;;;;;;5192438;28;20063;-34
2023/12/14 02:17:34;;;;;;;20.20;10.65;;;6.60;99.90;;;;;;5197641;28;20029;-34
2023/12/14 02:20:06;;;;;;;17.63;9.80;;;6.60;99.90;;;;;;5190722;28;20401;-38
2023/12/14 02:22:58;;;;;;;19.42;11.02;;;6.60;99.90;;;;;;5179428;28;20347;-35
2023/12/14 02:25:34;;;;;;;18.92;10.85;;;6.60;99.90;;;;;;5203921;28;20037;-44
2023/12/14 02:28:05;;;;;;;20.80;11.00;;;6.70;99.90;;;;;;5193423;28;20052;-34
2023/12/14 02:30:39;;;;;;;19.40;10.55;;;6.70;99.90;;;;;;5186381;28;20245;-34
2023/12/14 02:33:12;;;;;;;17.95;9.93;;;6.80;99.90;;;;;;5179441;28;20048;-34
2023/12/14 02:35:44;;;;;;;17.30;9.43;;;6.80;99.90;;;;;;5192772;28;20032;-34
2023/12/14 02:38:15;;;;;;;15.70;9.75;;;6.80;99.90;;;;;;5186113;28;20228;-34
2023/12/14 02:40:46;;;;;;;15.57;8.50;;;6.70;92.10;;;;;;5180185;28;20033;-34
2023/12/14 02:43:20;;;;;;;16.52;9.98;;;6.70;94.40;;;;;;5194285;28;20328;-34
2023/12/14 02:46:01;;;;;;;15.15;8.90;;;6.80;93.20;;;;;;5176169;28;20384;-34
2023/12/14 02:48:32;;;;;;;15.45;8.75;;;6.90;88.80;;;;;;5186427;28;20045;-34
2023/12/14 02:51:04;;;;;;;14.55;8.55;;;7.00;70.80;;;;;;5191817;28;20026;-34
2023/12/14 02:53:37;;;;;;;14.55;8.23;;;7.00;49.30;;;;;;5168894;28;20036;-34
2023/12/14 02:56:10;;;;;;;16.65;8.80;;;7.10;3.70;;;;;;5185798;28;20037;-34
2023/12/14 02:58:42;;;;;;;16.80;8.40;;;7.10;1.00;;;;;;5189245;28;20617;-34
2023/12/14 03:01:18;;;;;;;13.90;7.57;;;7.10;1.00;;;;;;5176392;28;20048;-34
2023/12/14 03:03:49;;;;;;;14.02;8.13;;;7.20;1.00;;;;;;5194690;28;20308;-34
2023/12/14 03:06:20;;;;;;;11.38;6.95;;;7.20;1.00;;;;;;5186584;28;20246;-34
2023/12/14 03:08:55;;;;;;;14.25;8.43;;;7.20;1.00;;;;;;5188840;28;20105;-34
2023/12/14 03:11:28;;;;;;;12.00;7.43;;;7.20;1.00;;;;;;5199064;28;20399;-34
2023/12/14 03:13:59;;;;;;;14.07;8.33;;;7.20;1.00;;;;;;5189403;28;20037;-34
2023/12/14 03:16:35;;;;;;;14.55;7.90;;;7.20;1.00;;;;;;5176666;28;20289;-34
2023/12/14 03:19:06;;;;;;;11.45;7.75;;;7.20;1.00;;;;;;5195200;28;20036;-34
2023/12/14 03:21:37;;;;;;;11.73;7.60;;;7.20;1.00;;;;;;5181390;28;20029;-34
2023/12/14 03:24:11;;;;;;;13.40;7.65;;;7.20;1.00;;;;;;5180448;28;20033;-34
2023/12/14 03:26:44;;;;;;;10.63;6.93;;;7.20;1.00;;;;;;5188923;28;20034;-34
2023/12/14 03:29:18;;;;;;;11.70;7.50;;;7.20;1.00;;;;;;5188738;28;20201;-34
2023/12/14 03:31:49;;;;;;;;;;;7.20;1.00;;;;;;5193305;28;20052;-34
2023/12/14 03:34:24;;;;;;;12.50;7.25;;;7.20;1.00;;;;;;5194878;28;19936;-35
2023/12/14 03:36:55;;;;;;;12.55;7.53;;;7.10;1.00;;;;;;5190888;28;20033;-34
2023/12/14 03:39:28;;;;;;;9.27;6.50;;;7.20;1.00;;;;;;5186795;28;20037;-34
2023/12/14 03:41:59;;;;;;;9.93;6.40;;;7.20;1.00;;;;;;5197193;28;20102;-35
2023/12/14 03:44:33;;;;;;;10.57;6.10;;;7.10;1.00;;;;;;5190174;28;20029;-34
2023/12/14 03:47:04;;;;;;;8.13;5.30;;;7.20;1.00;;;;;;5183016;28;20033;-34
2023/12/14 03:49:41;;;;;;;7.55;5.07;;;7.20;1.00;;;;;;5188610;28;20045;-34
2023/12/14 03:52:12;;;;;;;8.93;6.00;;;7.20;1.00;;;;;;5205594;28;20037;-34
2023/12/14 03:54:46;;;;;;;8.68;5.20;;;7.20;1.00;;;;;;5190232;28;20045;-34
2023/12/14 03:57:19;;;;;;;8.60;5.03;;;7.20;1.00;;;;;;5165286;28;20032;-34
2023/12/14 03:59:53;;;;;;;8.40;5.25;;;7.30;1.00;;;;;;5193697;28;20044;-34
2023/12/14 04:02:26;;;;;;;10.65;5.63;;;7.30;1.00;;;;;;5185527;28;20631;-34
2023/12/14 04:04:57;;;;;;;5.68;4.65;;;7.30;1.00;;;;;;5195020;28;20196;-34
2023/12/14 04:07:29;;;;;;;8.90;5.05;;;7.30;1.00;;;;;;5206542;28;20045;-35
2023/12/14 04:10:03;;;;;;;8.80;5.18;;;7.30;1.00;;;;;;5179235;28;20029;-35
2023/12/14 04:12:34;;;;;;;7.82;5.07;;;7.30;1.00;;;;;;5181382;28;20025;-35
2023/12/14 04:15:09;;;;;;;6.05;4.28;;;7.30;1.00;;;;;;5184779;28;20230;-35
2023/12/14 04:17:43;;;;;;;7.63;4.90;;;7.40;1.00;;;;;;5188067;28;21441;-35
2023/12/14 04:20:19;;;;;;;4.93;4.10;;;7.40;1.00;;;;;;5191844;28;20243;-35
2023/12/14 04:22:53;;;;;;;7.28;4.32;;;7.40;1.00;;;;;;5192675;28;20034;-35
2023/12/14 04:25:24;;;;;;;5.32;3.90;;;7.40;1.00;;;;;;5194361;28;20037;-35
2023/12/14 04:27:57;;;;;;;7.30;4.70;;;7.40;1.00;;;;;;5184381;28;20283;-35
2023/12/14 04:30:31;;;;;;;5.40;3.77;;;7.40;1.00;;;;;;5197867;28;20044;-35
2023/12/14 04:33:02;;;;;;;14.77;4.82;;;7.40;1.00;;;;;;5192924;28;20029;-36
2023/12/14 04:35:36;;;;;;;6.55;4.40;;;7.40;1.00;;;;;;5197213;28;20033;-36
2023/12/14 04:38:08;;;;;;;6.85;4.88;;;7.40;1.00;;;;;;5186203;28;20040;-36
2023/12/14 04:40:39;;;;;;;9.07;4.35;;;7.30;1.00;;;;;;5186312;28;20033;-36
2023/12/14 04:43:13;;;;;;;4.80;4.25;;;7.30;1.00;;;;;;5169732;28;20123;-35
2023/12/14 04:45:44;;;;;;;5.05;4.10;;;7.20;1.00;;;;;;5174225;28;20037;-35
2023/12/14 04:48:20;;;;;;;5.45;4.13;;;7.20;1.00;;;;;;5187079;28;21565;-35
2023/12/14 04:50:51;;;;;;;4.80;4.05;;;7.20;1.00;;;;;;5175943;28;20037;-35
2023/12/14 04:53:29;;;;;;;4.50;3.53;;;7.20;1.00;;;;;;5187156;28;20039;-35
2023/12/14 04:56:02;;;;;;;6.13;4.20;;;7.20;1.00;;;;;;5190382;28;20306;-35
2023/12/14 04:58:36;;;;;;;6.43;4.22;;;7.20;1.00;;;;;;5178534;28;20056;-37
2023/12/14 05:01:10;;;;;;;4.68;3.38;;;7.20;1.00;;;;;;5191639;28;20886;-36
2023/12/14 05:03:41;;;;;;;5.30;2.90;;;7.30;1.00;;;;;;5189511;28;20037;-36
2023/12/14 05:06:15;;;;;;;3.35;3.00;;;7.30;1.00;;;;;;5193802;28;20063;-36
2023/12/14 05:08:47;;;;;;;3.88;3.20;;;7.30;99.90;;;;;;5185399;28;20344;-36
2023/12/14 05:11:18;;;;;;;4.90;3.80;;;7.40;99.90;;;;;;5190354;28;20043;-36
2023/12/14 05:13:52;;;;;;;4.75;3.30;;;7.30;99.90;;;;;;5193636;28;20033;-35
2023/12/14 05:16:27;;;;;;;6.05;3.42;;;7.30;99.90;;;;;;5188640;28;20033;-35
2023/12/14 05:19:01;;;;;;;3.85;2.97;;;7.30;1.00;;;;;;5183346;28;20033;-35
2023/12/14 05:21:32;;;;;;;4.47;3.03;;;7.20;1.00;;;;;;5160147;28;20262;-35
2023/12/14 05:24:04;;;;;;;3.53;2.88;;;7.20;1.00;;;;;;5173367;28;20369;-35
2023/12/14 05:26:35;;;;;;;3.17;2.83;;;7.20;99.90;;;;;;5190299;28;20291;-35
2023/12/14 05:29:06;;;;;;;2.75;2.45;;;7.20;99.90;;;;;;5190391;28;20060;-35
2023/12/14 05:31:37;;;;;;;2.10;1.95;;;7.20;99.90;;;;;;5185964;28;20040;-35
2023/12/14 05:34:15;;;;;;;1.92;1.77;;;7.20;99.90;;;;;;5190448;28;20059;-35
2023/12/14 05:36:47;;;;;;;2.40;1.80;;;7.20;1.00;;;;;;5192709;28;20034;-35
2023/12/14 05:39:26;;;;;;;1.65;1.42;;;7.20;1.00;;;;;;5184713;28;20338;-35
2023/12/14 05:42:00;;;;;;;1.40;1.30;;;7.20;1.00;;;;;;5187051;28;20380;-35
2023/12/14 05:44:31;;;;;;;2.22;1.60;;;7.20;1.00;;;;;;5181697;28;20310;-36
2023/12/14 05:47:03;;;;;;;1.27;1.17;;;7.20;1.00;;;;;;5205603;28;20048;-35
2023/12/14 05:49:37;;;;;;;1.88;1.50;;;7.10;1.00;;;;;;5179080;28;20033;-35
2023/12/14 05:52:13;;;;;;;2.05;1.85;;;7.10;1.00;;;;;;5202393;28;20033;-35
2023/12/14 05:54:47;;;;;;;1.75;1.60;;;7.00;1.00;;;;;;5192981;28;20040;-35
2023/12/14 05:57:18;;;;;;;2.03;1.83;;;7.00;1.00;;;;;;5188259;28;20033;-36
2023/12/14 05:59:53;;;;;;;2.63;1.17;;;7.00;1.00;;;;;;5193627;28;20157;-35
2023/12/14 06:02:27;;;;;;;0.90;0.80;;;6.90;1.00;;;;;;5183332;28;20037;-35
2023/12/14 06:05:01;;;;;;;1.20;1.10;;;6.90;1.00;;;;;;5195515;28;20025;-35
2023/12/14 06:07:32;;;;;;;1.23;0.88;;;6.90;1.00;;;;;;5192501;28;20245;-35
2023/12/14 06:10:07;;;;;;;0.98;0.93;;;6.90;1.00;;;;;;5198969;28;20038;-35
2023/12/14 06:12:38;;;;;;;0.80;0.80;;;6.80;1.00;;;;;;5190375;28;20025;-35
2023/12/14 06:15:13;;;;;;;1.63;1.23;;;6.80;1.00;;;;;;5174923;28;20033;-35
2023/12/14 06:17:47;;;;;;;1.38;1.10;;;6.90;1.00;;;;;;5160070;28;20041;-35
2023/12/14 06:20:18;;;;;;;1.02;0.82;;;6.90;1.00;;;;;;5193356;28;20037;-35
2023/12/14 06:22:54;;;;;;;0.93;0.93;;;6.80;1.00;;;;;;5193324;28;20338;-35
2023/12/14 06:25:25;;;;;;;1.20;0.93;;;6.80;1.00;;;;;;5180321;28;20045;-35
2023/12/14 06:27:58;;;;;;;1.98;1.60;;;6.80;1.00;;;;;;5198096;28;20036;-35
2023/12/14 06:30:29;;;;;;;1.58;1.00;;;6.80;1.00;;;;;;5193865;28;20038;-35
2023/12/14 06:33:00;;;;;;;1.70;1.33;;;6.80;1.00;;;;;;5198797;28;20251;-35
2023/12/14 06:35:31;;;;;;;0.95;0.95;;;6.80;99.90;;;;;;5194361;28;20063;-35
2023/12/14 06:38:03;;;;;;;1.30;1.20;;;6.80;99.90;;;;;;5196414;28;20077;-35
2023/12/14 06:40:38;;;;;;;1.67;1.10;;;6.80;99.90;;;;;;5199230;28;20029;-35
2023/12/14 06:43:12;;;;;;;1.50;1.40;;;6.80;99.90;;;;;;5181256;28;20029;-35
2023/12/14 06:45:46;;;;;;;1.48;1.27;;;6.80;99.90;;;;;;5192622;28;20521;-35
2023/12/14 06:48:17;;;;;;;0.77;0.77;;;6.80;99.90;;;;;;5190737;28;20037;-35
2023/12/14 06:50:48;;;;;;;0.82;0.82;;;6.80;99.90;;;;;;5192350;28;20041;-35
2023/12/14 06:53:19;;;;;;;1.48;1.00;;;6.80;99.90;;;;;;5186481;28;20308;-35
2023/12/14 06:55:50;;;;;;;0.90;0.90;;;6.80;99.90;;;;;;5197554;28;20049;-36
2023/12/14 06:58:24;;;;;;;4.32;0.90;;;6.80;99.90;;;;;;5190019;28;20292;-35
2023/12/14 07:00:55;;;;;;;0.97;0.83;;;6.80;99.90;;;;;;5192875;28;20325;-35
2023/12/14 07:03:31;;;;;;;1.58;0.95;;;6.80;99.90;;;;;;5208363;28;20276;-35
2023/12/14 07:06:03;;;;;;;0.90;0.77;;;6.80;99.90;;;;;;5218840;28;20322;-35
2023/12/14 07:08:36;;;;;;;1.77;0.98;;;6.80;99.90;;;;;;5177425;28;20052;-35
2023/12/14 07:11:11;;;;;;;1.75;1.15;;;6.80;99.90;;;;;;5193947;28;20041;-35
2023/12/14 07:13:45;;;;;;;1.25;1.02;;;6.80;99.90;;;;;;5192032;28;20040;-35
2023/12/14 07:16:17;;;;;;;1.70;1.20;;;6.80;99.90;;;;;;5193133;28;20036;-35
2023/12/14 07:18:53;;;;;;;1.10;0.95;;;6.80;99.90;;;;;;5187341;28;20214;-35
2023/12/14 07:21:25;;;;;;;1.40;1.30;;;6.90;99.90;;;;;;5188255;28;20033;-35
2023/12/14 07:23:56;;;;;;;2.25;1.10;;;6.90;99.90;;;;;;5189140;28;20046;-35
2023/12/14 07:26:27;;;;;;;1.73;1.50;;;6.90;99.90;;;;;;5192065;28;20056;-35
2023/12/14 07:28:58;;;;;;;1.27;1.13;;;6.90;99.90;;;;;;5185854;28;20080;-35
2023/12/14 07:31:30;;;;;;;0.80;0.80;;;6.80;99.90;;;;;;5184414;28;20026;-35
2023/12/14 07:34:01;;;;;;;1.67;1.00;;;6.90;91.30;;;;;;5195004;28;20068;-36
2023/12/14 07:36:34;;;;;;;1.27;0.85;;;6.90;95.10;;;;;;5197798;28;20037;-36
2023/12/14 07:39:05;;;;;;;1.40;0.90;;;6.90;85.00;;;;;;5165230;28;20210;-36
2023/12/14 07:41:37;;;;;;;4.57;1.00;;;6.90;49.30;;;;;;5153238;28;20037;-35
2023/12/14 07:44:11;;;;;;;1.25;1.00;;;6.90;50.70;;;;;;5191998;28;20033;-35
2023/12/14 07:46:44;;;;;;;1.92;1.20;;;7.00;37.40;;;;;;5174779;28;20041;-35
2023/12/14 07:49:18;;;;;;;1.73;1.40;;;7.00;1.00;;;;;;5191481;28;20037;-35
2023/12/14 07:51:52;;;;;;;2.38;1.20;;;7.00;1.00;;;;;;5190261;28;20037;-35
2023/12/14 07:54:26;;;;;;;3.10;1.35;;;7.00;1.00;;;;;;5190855;28;20210;-35
2023/12/14 07:56:57;;;;;;;3.33;1.55;;;7.00;1.00;;;;;;5191690;28;20297;-35
2023/12/14 07:59:29;;;;;;;0.90;0.90;;;7.10;1.00;;;;;;5186891;28;20292;-35
2023/12/14 08:02:01;;;;;;;0.80;0.80;;;7.10;1.00;;;;;;5184600;28;20072;-35
2023/12/14 08:04:34;;;;;;;0.90;0.90;;;7.10;1.00;;;;;;5173211;28;20355;-35
2023/12/14 08:07:05;;;;;;;2.00;1.42;;;7.10;1.00;;;;;;5211477;28;20305;-35
2023/12/14 08:09:36;;;;;;;0.77;0.77;;;7.10;1.00;;;;;;5189775;28;20375;-35
2023/12/14 08:12:08;;;;;;;1.23;0.80;;;7.10;1.00;;;;;;5191055;28;20190;-35
2023/12/14 08:14:46;;;;;;;1.58;1.13;;;7.10;1.00;;;;;;5184542;28;20029;-35
2023/12/14 08:17:18;;;;;;;0.80;0.80;;;7.20;1.00;;;;;;5193322;28;20267;-35
2023/12/14 08:19:49;;;;;;;1.08;1.00;;;7.10;1.00;;;;;;5174264;28;20044;-35
2023/12/14 08:22:23;;;;;;;1.45;1.25;;;7.20;1.00;;;;;;5195339;28;20313;-35
2023/12/14 08:24:54;;;;;;;1.65;1.52;;;7.20;1.00;;;;;;5195469;28;20033;-36
2023/12/14 08:27:25;;;;;;;1.33;1.10;;;7.20;1.00;;;;;;5195800;28;20033;-36
2023/12/14 08:29:56;;;;;;;1.00;1.00;;;7.20;1.00;;;;;;5189625;28;20059;-35
2023/12/14 08:32:30;;;;;;;1.10;1.10;;;7.30;1.00;;;;;;5187784;28;20029;-36
2023/12/14 08:35:01;;;;;;;1.35;1.25;;;7.30;1.00;;;;;;5192556;28;20029;-36
2023/12/14 08:37:32;;;;;;;1.00;1.00;;;7.40;1.00;;;;;;5191613;28;20038;-36
2023/12/14 08:40:05;;;;;;;1.13;1.02;;;7.40;1.00;;;;;;5183250;28;20040;-36
2023/12/14 08:42:42;;;;;;;0.85;0.85;;;7.40;1.00;;;;;;5186478;28;20261;-36
2023/12/14 08:45:13;;;;;;;1.02;0.90;;;7.40;1.00;;;;;;5187422;28;20271;-35
2023/12/14 08:47:44;;;;;;;1.55;1.05;;;7.30;1.00;;;;;;5189466;28;20033;-36
2023/12/14 08:50:16;;;;;;;0.75;0.75;;;7.30;1.00;;;;;;5181498;28;20101;-36
2023/12/14 08:52:51;;;;;;;1.17;0.75;;;7.30;1.00;;;;;;5188805;28;20112;-36
2023/12/14 08:55:24;;;;;;;0.70;0.70;;;7.40;1.00;;;;;;5194499;28;20044;-36
2023/12/14 08:57:58;;;;;;;1.45;1.25;;;7.40;1.00;;;;;;5179011;28;20033;-36
2023/12/14 09:00:29;;;;;;;0.73;0.73;;;7.40;1.00;;;;;;5183577;28;20233;-36
2023/12/14 09:03:03;;;;;;;0.90;0.77;;;7.50;1.00;;;;;;5189406;28;20048;-35
2023/12/14 09:05:34;;;;;;;1.00;1.00;;;7.50;1.00;;;;;;5172800;28;20048;-35
2023/12/14 09:08:06;;;;;;;2.95;1.00;;;7.50;1.00;;;;;;5192188;28;20052;-35
2023/12/14 09:10:38;;;;;;;1.08;0.93;;;7.50;1.00;;;;;;5195633;28;20243;-35
2023/12/14 09:13:12;;;;;;;1.80;0.90;;;7.60;1.00;;;;;;5191592;28;20274;-35
2023/12/14 09:15:46;;;;;;;0.77;0.77;;;7.60;1.00;;;;;;5203768;28;20033;-36
2023/12/14 09:18:17;;;;;;;1.20;1.10;;;7.70;1.00;;;;;;5189624;28;20037;-36
2023/12/14 09:20:51;;;;;;;0.80;0.80;;;7.70;1.00;;;;;;5195835;28;20029;-35
2023/12/14 09:23:23;;;;;;;;;;;7.70;1.00;;;;;;5195022;28;20034;-35
2023/12/14 09:25:55;;;;;;;1.00;0.90;;;7.70;1.00;;;;;;5192342;28;19992;-35
2023/12/14 09:28:27;;;;;;;0.95;0.95;;;7.70;1.00;;;;;;5192580;28;20031;-36
2023/12/14 09:30:58;;;;;;;1.00;1.00;;;7.70;1.00;;;;;;5189768;28;20129;-36
2023/12/14 09:33:30;;;;;;;1.15;1.00;;;7.80;1.00;;;;;;5188321;28;20037;-35
2023/12/14 09:36:04;;;;;;;1.00;0.90;;;7.80;1.00;;;;;;5178977;28;20175;-35
2023/12/14 09:38:36;;;;;;;0.80;0.80;;;7.80;1.00;;;;;;5175312;28;20045;-36
2023/12/14 09:41:07;;;;;;;1.13;1.02;;;7.90;1.00;;;;;;5192862;28;20596;-35
2023/12/14 09:43:42;;;;;;;0.90;0.90;;;7.90;1.00;;;;;;5184678;28;20049;-35
2023/12/14 09:46:17;;;;;;;0.70;0.70;;;7.90;1.00;;;;;;5171058;28;20269;-35
2023/12/14 09:48:52;;;;;;;1.58;1.00;;;8.00;1.00;;;;;;5171292;28;20338;-35
2023/12/14 09:51:24;;;;;;;0.93;0.80;;;8.00;1.00;;;;;;5204738;28;20027;-35
2023/12/14 09:53:58;;;;;;;0.95;0.90;;;8.20;1.00;;;;;;5190863;28;20049;-35
2023/12/14 09:56:30;;;;;;;0.90;0.90;;;8.30;1.00;;;;;;5184367;28;20022;-35
2023/12/14 09:59:06;;;;;;;1.88;1.08;;;8.40;1.00;;;;;;5182210;28;20087;-35
2023/12/14 10:01:37;;;;;;;1.00;1.00;;;8.50;1.00;;;;;;5195519;28;20044;-36
2023/12/14 10:04:13;;;;;;;1.23;1.13;;;8.70;1.00;;;;;;5178389;28;20053;-35
2023/12/14 10:06:48;;;;;;;1.20;0.90;;;8.80;1.00;;;;;;5173549;28;20106;-35
2023/12/14 10:09:23;;;;;;;0.88;0.82;;;8.80;1.00;;;;;;5203364;28;20045;-35
2023/12/14 10:12:04;;;;;;;1.08;0.95;;;8.80;1.00;;;;;;5190036;28;20222;-36
2023/12/14 10:14:41;;;;;;;1.20;1.15;;;8.60;1.00;;;;;;5179122;28;20303;-35
2023/12/14 10:17:24;;;;;;;0.85;0.75;;;8.60;1.00;;;;;;5191982;28;20025;-35
2023/12/14 10:19:57;;;;;;;1.20;1.10;;;8.50;1.00;;;;;;5173130;28;20073;-36
2023/12/14 10:22:28;;;;;;;5.38;1.00;;;8.40;1.00;;;;;;5190276;28;20037;-35
2023/12/14 10:25:00;;;;;;;0.90;0.90;;;8.40;1.00;;;;;;5185636;28;20380;-36
2023/12/14 10:27:34;;;;;;;0.85;0.80;;;8.40;1.00;;;;;;5201433;28;20037;-36
2023/12/14 10:30:12;;;;;;;1.13;0.80;;;8.50;1.00;;;;;;5180456;28;20060;-36
2023/12/14 10:32:49;;;;;;;0.70;0.70;;;8.50;1.00;;;;;;5197539;28;20305;-36
2023/12/14 10:35:21;;;;;;;0.77;0.77;;;8.40;1.00;;;;;;5178009;28;20233;-36
2023/12/14 10:38:03;;;;;;;0.95;0.95;;;8.50;1.00;;;;;;5195925;28;20029;-36
2023/12/14 10:40:36;;;;;;;1.20;1.10;;;8.50;1.00;;;;;;5198506;28;20240;-35
2023/12/14 10:43:10;;;;;;;1.10;1.00;;;8.60;1.00;;;;;;5203287;28;20055;-35
2023/12/14 10:45:43;;;;;;;0.70;0.70;;;8.60;1.00;;;;;;5183037;28;20046;-35
2023/12/14 10:48:20;;;;;;;1.10;1.00;;;8.60;1.00;;;;;;5196041;28;20236;-35
2023/12/14 10:50:53;;;;;;;0.75;0.75;;;8.60;1.00;;;;;;5184755;28;20049;-35
2023/12/14 10:53:27;;;;;;;1.45;1.30;;;8.60;1.00;;;;;;5202809;28;20174;-36
2023/12/14 10:56:06;;;;;;;1.30;1.10;;;8.60;1.00;;;;;;5191475;28;20040;-36
2023/12/14 10:58:55;;;;;;;0.90;0.90;;;8.60;1.00;;;;;;5188548;28;20289;-35
2023/12/14 11:01:27;;;;;;;0.80;0.80;;;8.50;1.00;;;;;;5185175;28;20045;-36
2023/12/14 11:03:59;;;;;;;1.10;1.02;;;8.50;1.00;;;;;;5199460;28;20052;-35
2023/12/14 11:06:32;;;;;;;1.00;1.00;;;8.60;1.00;;;;;;5199753;28;20037;-35
2023/12/14 11:09:10;;;;;;;0.95;0.90;;;8.60;1.00;;;;;;5201371;28;20249;-36
2023/12/14 11:11:48;;;;;;;1.02;0.95;;;8.50;1.00;;;;;;5198325;28;20379;-35
2023/12/14 11:14:22;;;;;;;1.20;1.10;;;8.70;1.00;;;;;;5184694;28;20222;-35
2023/12/14 11:17:01;;;;;;;1.10;1.00;;;8.60;1.00;;;;;;5184360;28;20072;-36
2023/12/14 11:19:33;;;;;;;1.30;1.20;;;8.50;1.00;;;;;;5199503;28;20191;-36
2023/12/14 11:22:07;;;;;;;1.20;1.10;;;8.60;1.00;;;;;;5195402;28;20265;-35
2023/12/14 11:24:45;;;;;;;1.40;1.30;;;8.80;1.00;;;;;;5185877;28;20037;-36
2023/12/14 11:27:27;;;;;;;1.23;1.08;;;8.90;1.00;;;;;;5180076;28;20488;-36
2023/12/14 11:30:00;;;;;;;1.67;1.58;;;9.10;1.00;;;;;;5172729;28;20341;-35
2023/12/14 11:32:31;;;;;;;1.70;1.23;;;9.30;1.00;;;;;;5163730;28;20029;-36
2023/12/14 11:35:08;;;;;;;1.80;1.33;;;10.10;1.00;;;;;;5197730;28;20092;-35
2023/12/14 11:37:40;;;;;;;2.03;1.30;;;11.00;99.90;;;;;;5199499;28;20041;-35
2023/12/14 11:40:22;;;;;;;1.30;1.20;;;11.60;99.90;;;;;;5196172;28;20026;-35
2023/12/14 11:43:00;;;;;;;1.30;1.20;;;12.10;93.80;;;;;;5172227;28;20072;-35
2023/12/14 11:45:31;;;;;;;1.65;1.55;;;12.20;1.00;;;;;;5193548;28;20031;-35
2023/12/14 11:48:10;;;;;;;1.67;1.20;;;11.10;1.00;;;;;;5202168;28;20198;-35
2023/12/14 11:50:43;;;;;;;1.10;1.10;;;10.00;1.00;;;;;;5196686;28;20038;-35
2023/12/14 11:53:14;;;;;;;1.33;1.23;;;9.30;1.00;;;;;;5199835;28;20396;-35
2023/12/14 11:55:46;;;;;;;1.17;1.08;;;9.00;1.00;;;;;;5197306;28;20029;-35
2023/12/14 11:58:17;;;;;;;2.47;1.67;;;8.80;1.00;;;;;;5199858;28;20049;-35
2023/12/14 12:00:51;;;;;;;1.70;1.40;;;8.80;1.00;;;;;;5190407;28;20031;-35
2023/12/14 12:03:24;;;;;;;1.45;1.35;;;8.80;8.80;;;;;;5143796;28;20252;-35
2023/12/14 12:05:59;;;;;;;1.50;1.40;;;8.90;32.10;;;;;;5175486;28;20037;-35
2023/12/14 12:08:30;;;;;;;2.28;1.60;;;9.00;32.40;;;;;;5178877;28;20044;-35
2023/12/14 12:11:02;;;;;;;1.48;1.35;;;8.90;23.60;;;;;;5193374;28;20029;-35
2023/12/14 12:13:36;;;;;;;1.30;1.20;;;8.80;66.30;;;;;;5181390;28;20053;-35
2023/12/14 12:16:07;;;;;;;2.03;1.70;;;8.60;51.30;;;;;;5178533;28;20033;-35
2023/12/14 12:18:41;;;;;;;2.08;1.88;;;8.50;61.30;;;;;;5180813;28;20057;-35
2023/12/14 12:21:15;;;;;;;4.17;2.63;;;8.60;99.90;;;;;;5206209;28;20225;-35
2023/12/14 12:23:46;;;;;;;;;;;8.60;99.90;;;;;;5179511;28;20041;-35
2023/12/14 12:26:17;;;;;;;17.30;8.02;;;8.70;99.90;;;;;;5192857;28;19909;-35
2023/12/14 12:28:49;;;;;;;3.03;2.38;;;9.00;99.90;;;;;;5176070;28;20055;-35
2023/12/14 12:31:22;;;;;;;4.55;3.33;;;9.60;99.90;;;;;;5198463;28;20037;-35
2023/12/14 12:33:59;;;;;;;7.32;3.70;;;9.50;75.60;;;;;;5177825;28;20049;-35
2023/12/14 12:36:31;;;;;;;3.13;2.47;;;9.50;58.40;;;;;;5194012;28;20030;-35
2023/12/14 12:39:03;;;;;;;4.25;3.10;;;9.40;69.60;;;;;;5180343;28;20051;-35
2023/12/14 12:41:37;;;;;;;2.67;2.20;;;9.10;79.20;;;;;;5197567;28;20021;-35
2023/12/14 12:44:08;;;;;;;2.88;2.40;;;8.80;64.10;;;;;;5185306;28;20238;-35
2023/12/14 12:46:40;;;;;;;1.63;1.52;;;8.70;90.90;;;;;;5198782;28;20033;-35
2023/12/14 12:49:15;;;;;;;2.03;1.80;;;8.50;78.40;;;;;;5176350;28;20063;-35
2023/12/14 12:51:48;;;;;;;;;;;8.30;85.00;;;;;;5212482;28;20360;-35
2023/12/14 12:54:19;;;;;;;1.67;1.58;;;8.10;90.60;;;;;;5187244;28;20089;-34
2023/12/14 12:56:53;;;;;;;1.20;1.10;;;8.10;99.90;;;;;;5199562;28;20026;-35
2023/12/14 12:59:24;;;;;;;1.90;1.40;;;8.00;99.90;;;;;;5182062;28;20265;-35
2023/12/14 13:01:55;;;;;;;1.60;1.50;;;8.00;99.90;;;;;;5189320;28;20288;-35
2023/12/14 13:04:27;;;;;;;1.60;1.50;;;8.00;99.90;;;;;;5188994;28;20041;-35
2023/12/14 13:07:04;;;;;;;0.98;0.98;;;8.10;99.90;;;;;;5191575;28;20337;-35
2023/12/14 13:09:37;;;;;;;1.50;1.40;;;8.40;99.90;;;;;;5174858;28;20072;-35
2023/12/14 13:12:16;;;;;;;1.87;1.30;;;8.70;99.90;;;;;;5190938;28;20040;-35
2023/12/14 13:14:47;;;;;;;1.38;1.27;;;9.00;99.90;;;;;;5195038;28;20233;-35
2023/12/14 13:17:18;;;;;;;1.30;1.05;;;8.80;99.90;;;;;;5188208;28;20676;-35
2023/12/14 13:19:52;;;;;;;1.25;1.15;;;8.60;96.50;;;;;;5182747;28;20373;-35
2023/12/14 13:22:23;;;;;;;1.50;1.40;;;8.70;99.90;;;;;;5201750;28;20040;-35
2023/12/14 13:24:55;;;;;;;1.23;1.13;;;9.00;99.90;;;;;;5183482;28;20045;-35
2023/12/14 13:27:29;;;;;;;1.60;1.30;;;9.00;99.90;;;;;;5186434;28;20037;-35
2023/12/14 13:30:00;;;;;;;0.95;0.88;;;9.00;99.90;;;;;;5182181;28;20041;-35
2023/12/14 13:32:31;;;;;;;1.50;1.30;;;8.80;92.50;;;;;;5189251;28;20253;-35